sensor_id;sensor_type;location;lat;lon;timestamp;temperature;humidity
6054;DHT22;3055;50.886;14.814;2023-07-02T00:02:13;19.10;99.90
6054;DHT22;3055;50.886;14.814;2023-07-02T00:04:41;19.10;99.90
6054;DHT22;3055;50.886;14.814;2023-07-02T00:07:08;19.00;1.00
6054;DHT22;3055;50.886;14.814;2023-07-02T00:09:35;19.10;1.00
6054;DHT22;3055;50.886;14.814;2023-07-02T00:12:05;19.10;99.90
6054;DHT22;3055;50.886;14.814;2023-07-02T00:14:32;19.10;99.90
6054;DHT22;3055;50.886;14.814;2023-07-02T00:16:59;19.10;1.00
6054;DHT22;3055;50.886;14.814;2023-07-02T00:19:26;19.00;1.00
6054;DHT22;3055;50.886;14.814;2023-07-02T00:21:53;19.00;99.90
6054;DHT22;3055;50.886;14.814;2023-07-02T00:24:20;19.00;1.00
6054;DHT22;3055;50.886;14.814;2023-07-02T00:26:47;19.10;1.00
6054;DHT22;3055;50.886;14.814;2023-07-02T00:29:16;19.10;99.90
6054;DHT22;3055;50.886;14.814;2023-07-02T00:31:43;19.10;99.90
6054;DHT22;3055;50.886;14.814;2023-07-02T00:34:10;19.10;99.90
6054;DHT22;3055;50.886;14.814;2023-07-02T00:36:37;19.00;1.00
6054;DHT22;3055;50.886;14.814;2023-07-02T00:39:04;18.90;99.90
6054;DHT22;3055;50.886;14.814;2023-07-02T00:41:33;18.90;99.90
6054;DHT22;3055;50.886;14.814;2023-07-02T00:44:00;18.90;1.00
6054;DHT22;3055;50.886;14.814;2023-07-02T00:46:28;18.80;99.90
6054;DHT22;3055;50.886;14.814;2023-07-02T00:48:55;18.80;1.00
6054;DHT22;3055;50.886;14.814;2023-07-02T00:51:24;18.80;1.00
6054;DHT22;3055;50.886;14.814;2023-07-02T00:53:52;18.90;99.90
6054;DHT22;3055;50.886;14.814;2023-07-02T00:56:20;18.80;99.90
6054;DHT22;3055;50.886;14.814;2023-07-02T00:58:49;18.90;99.90
6054;DHT22;3055;50.886;14.814;2023-07-02T01:01:17;18.90;31.90
6054;DHT22;3055;50.886;14.814;2023-07-02T01:03:53;19.00;1.00
6054;DHT22;3055;50.886;14.814;2023-07-02T01:06:26;19.00;1.00
6054;DHT22;3055;50.886;14.814;2023-07-02T01:08:58;18.90;1.00
6054;DHT22;3055;50.886;14.814;2023-07-02T01:11:27;18.90;1.00
6054;DHT22;3055;50.886;14.814;2023-07-02T01:13:59;18.90;99.90
6054;DHT22;3055;50.886;14.814;2023-07-02T01:16:29;18.90;1.00
6054;DHT22;3055;50.886;14.814;2023-07-02T01:19:01;19.00;99.90
6054;DHT22;3055;50.886;14.814;2023-07-02T01:21:31;18.90;1.00
6054;DHT22;3055;50.886;14.814;2023-07-02T01:23:59;18.90;1.00
6054;DHT22;3055;50.886;14.814;2023-07-02T01:26:29;18.80;1.00
6054;DHT22;3055;50.886;14.814;2023-07-02T01:28:57;18.80;99.90
6054;DHT22;3055;50.886;14.814;2023-07-02T01:31:24;18.80;99.90
6054;DHT22;3055;50.886;14.814;2023-07-02T01:33:51;18.90;99.90
6054;DHT22;3055;50.886;14.814;2023-07-02T01:36:18;18.90;99.90
6054;DHT22;3055;50.886;14.814;2023-07-02T01:38:47;18.90;99.90
6054;DHT22;3055;50.886;14.814;2023-07-02T01:41:14;18.90;99.90
6054;DHT22;3055;50.886;14.814;2023-07-02T01:43:41;18.90;99.90
6054;DHT22;3055;50.886;14.814;2023-07-02T01:46:08;19.00;1.00
6054;DHT22;3055;50.886;14.814;2023-07-02T01:48:35;19.00;99.90
6054;DHT22;3055;50.886;14.814;2023-07-02T01:51:02;19.00;99.90
6054;DHT22;3055;50.886;14.814;2023-07-02T01:53:29;19.10;1.00
6054;DHT22;3055;50.886;14.814;2023-07-02T01:55:58;19.10;1.00
6054;DHT22;3055;50.886;14.814;2023-07-02T01:58:25;19.10;1.00
6054;DHT22;3055;50.886;14.814;2023-07-02T02:00:52;19.10;1.00
6054;DHT22;3055;50.886;14.814;2023-07-02T02:03:21;19.10;1.00
6054;DHT22;3055;50.886;14.814;2023-07-02T02:05:48;19.10;1.00
6054;DHT22;3055;50.886;14.814;2023-07-02T02:08:15;19.10;1.00
6054;DHT22;3055;50.886;14.814;2023-07-02T02:10:42;19.10;1.00
6054;DHT22;3055;50.886;14.814;2023-07-02T02:13:11;19.10;1.00
6054;DHT22;3055;50.886;14.814;2023-07-02T02:15:38;19.10;1.00
6054;DHT22;3055;50.886;14.814;2023-07-02T02:18:06;19.10;1.00
6054;DHT22;3055;50.886;14.814;2023-07-02T02:20:34;19.10;1.00
6054;DHT22;3055;50.886;14.814;2023-07-02T02:23:01;19.00;55.10
6054;DHT22;3055;50.886;14.814;2023-07-02T02:25:28;19.00;77.00
6054;DHT22;3055;50.886;14.814;2023-07-02T02:27:55;19.00;99.90
6054;DHT22;3055;50.886;14.814;2023-07-02T02:30:23;19.00;99.90
6054;DHT22;3055;50.886;14.814;2023-07-02T02:32:50;19.00;99.90
6054;DHT22;3055;50.886;14.814;2023-07-02T02:35:17;19.00;99.90
6054;DHT22;3055;50.886;14.814;2023-07-02T02:37:44;19.00;99.90
6054;DHT22;3055;50.886;14.814;2023-07-02T02:40:12;19.00;99.90
6054;DHT22;3055;50.886;14.814;2023-07-02T02:42:39;19.00;99.90
6054;DHT22;3055;50.886;14.814;2023-07-02T02:45:07;19.10;4.60
6054;DHT22;3055;50.886;14.814;2023-07-02T02:47:35;19.10;1.00
6054;DHT22;3055;50.886;14.814;2023-07-02T02:50:03;19.10;74.90
6054;DHT22;3055;50.886;14.814;2023-07-02T02:52:30;19.00;76.70
6054;DHT22;3055;50.886;14.814;2023-07-02T02:54:57;19.00;91.60
6054;DHT22;3055;50.886;14.814;2023-07-02T02:57:24;19.10;93.30
6054;DHT22;3055;50.886;14.814;2023-07-02T02:59:52;19.00;99.90
6054;DHT22;3055;50.886;14.814;2023-07-02T03:02:19;19.00;99.90
6054;DHT22;3055;50.886;14.814;2023-07-02T03:04:47;19.00;99.90
6054;DHT22;3055;50.886;14.814;2023-07-02T03:07:14;19.00;99.90
6054;DHT22;3055;50.886;14.814;2023-07-02T03:09:42;19.00;1.00
6054;DHT22;3055;50.886;14.814;2023-07-02T03:12:09;19.00;22.60
6054;DHT22;3055;50.886;14.814;2023-07-02T03:14:36;19.00;99.90
6054;DHT22;3055;50.886;14.814;2023-07-02T03:17:04;19.00;1.00
6054;DHT22;3055;50.886;14.814;2023-07-02T03:19:31;18.90;99.90
6054;DHT22;3055;50.886;14.814;2023-07-02T03:21:59;18.90;1.00
6054;DHT22;3055;50.886;14.814;2023-07-02T03:24:26;18.90;80.70
6054;DHT22;3055;50.886;14.814;2023-07-02T03:26:53;18.90;99.90
6054;DHT22;3055;50.886;14.814;2023-07-02T03:29:20;18.90;99.90
6054;DHT22;3055;50.886;14.814;2023-07-02T03:31:47;18.90;99.90
6054;DHT22;3055;50.886;14.814;2023-07-02T03:34:14;18.90;1.00
6054;DHT22;3055;50.886;14.814;2023-07-02T03:36:41;18.90;99.90
6054;DHT22;3055;50.886;14.814;2023-07-02T03:39:11;18.90;99.90
6054;DHT22;3055;50.886;14.814;2023-07-02T03:41:38;18.90;99.90
6054;DHT22;3055;50.886;14.814;2023-07-02T03:44:05;18.90;1.00
6054;DHT22;3055;50.886;14.814;2023-07-02T03:46:32;18.90;1.00
6054;DHT22;3055;50.886;14.814;2023-07-02T03:48:59;18.80;99.90
6054;DHT22;3055;50.886;14.814;2023-07-02T03:51:26;18.80;99.90
6054;DHT22;3055;50.886;14.814;2023-07-02T03:53:53;18.80;99.90
6054;DHT22;3055;50.886;14.814;2023-07-02T03:56:21;18.80;99.90
6054;DHT22;3055;50.886;14.814;2023-07-02T03:58:48;18.80;99.90
6054;DHT22;3055;50.886;14.814;2023-07-02T04:01:16;18.80;99.90
6054;DHT22;3055;50.886;14.814;2023-07-02T04:03:48;18.90;99.90
6054;DHT22;3055;50.886;14.814;2023-07-02T04:06:15;18.90;1.00
6054;DHT22;3055;50.886;14.814;2023-07-02T04:08:42;18.90;1.00
6054;DHT22;3055;50.886;14.814;2023-07-02T04:11:10;18.90;1.00
6054;DHT22;3055;50.886;14.814;2023-07-02T04:13:38;18.90;99.90
6054;DHT22;3055;50.886;14.814;2023-07-02T04:16:06;19.00;1.00
6054;DHT22;3055;50.886;14.814;2023-07-02T04:18:34;19.10;1.00
6054;DHT22;3055;50.886;14.814;2023-07-02T04:21:02;19.10;1.00
6054;DHT22;3055;50.886;14.814;2023-07-02T04:23:29;19.20;99.90
6054;DHT22;3055;50.886;14.814;2023-07-02T04:25:56;19.30;88.40
6054;DHT22;3055;50.886;14.814;2023-07-02T04:28:23;19.30;99.90
6054;DHT22;3055;50.886;14.814;2023-07-02T04:30:52;19.30;36.20
6054;DHT22;3055;50.886;14.814;2023-07-02T04:33:19;19.20;99.90
6054;DHT22;3055;50.886;14.814;2023-07-02T04:35:46;19.20;99.90
6054;DHT22;3055;50.886;14.814;2023-07-02T04:38:13;19.30;99.90
6054;DHT22;3055;50.886;14.814;2023-07-02T04:40:40;19.30;1.00
6054;DHT22;3055;50.886;14.814;2023-07-02T04:43:10;19.40;99.90
6054;DHT22;3055;50.886;14.814;2023-07-02T04:45:37;19.50;99.90
6054;DHT22;3055;50.886;14.814;2023-07-02T04:48:06;19.60;99.90
6054;DHT22;3055;50.886;14.814;2023-07-02T04:50:34;19.80;99.90
6054;DHT22;3055;50.886;14.814;2023-07-02T04:53:01;20.10;1.00
6054;DHT22;3055;50.886;14.814;2023-07-02T04:55:28;20.30;99.90
6054;DHT22;3055;50.886;14.814;2023-07-02T04:57:55;20.40;1.00
6054;DHT22;3055;50.886;14.814;2023-07-02T05:00:22;20.40;99.90
6054;DHT22;3055;50.886;14.814;2023-07-02T05:02:49;20.30;99.90
6054;DHT22;3055;50.886;14.814;2023-07-02T05:05:18;20.20;99.90
6054;DHT22;3055;50.886;14.814;2023-07-02T05:07:45;20.20;1.00
6054;DHT22;3055;50.886;14.814;2023-07-02T05:10:12;20.20;1.00
6054;DHT22;3055;50.886;14.814;2023-07-02T05:12:39;20.10;1.00
6054;DHT22;3055;50.886;14.814;2023-07-02T05:15:07;20.10;1.00
6054;DHT22;3055;50.886;14.814;2023-07-02T05:17:35;20.10;99.90
6054;DHT22;3055;50.886;14.814;2023-07-02T05:20:02;20.00;99.90
6054;DHT22;3055;50.886;14.814;2023-07-02T05:22:31;19.90;1.00
6054;DHT22;3055;50.886;14.814;2023-07-02T05:24:58;19.80;1.00
6054;DHT22;3055;50.886;14.814;2023-07-02T05:27:25;19.80;98.10
6054;DHT22;3055;50.886;14.814;2023-07-02T05:29:52;19.70;1.00
6054;DHT22;3055;50.886;14.814;2023-07-02T05:32:19;19.70;99.90
6054;DHT22;3055;50.886;14.814;2023-07-02T05:34:46;19.60;99.90
6054;DHT22;3055;50.886;14.814;2023-07-02T05:37:13;19.50;99.90
6054;DHT22;3055;50.886;14.814;2023-07-02T05:39:42;19.40;99.90
6054;DHT22;3055;50.886;14.814;2023-07-02T05:42:09;19.20;1.00
6054;DHT22;3055;50.886;14.814;2023-07-02T05:44:36;19.10;1.00
6054;DHT22;3055;50.886;14.814;2023-07-02T05:47:03;19.00;1.00
6054;DHT22;3055;50.886;14.814;2023-07-02T05:49:30;18.90;20.10
6054;DHT22;3055;50.886;14.814;2023-07-02T05:51:57;19.00;39.40
6054;DHT22;3055;50.886;14.814;2023-07-02T05:54:24;18.90;38.10
6054;DHT22;3055;50.886;14.814;2023-07-02T05:56:53;19.00;70.90
6054;DHT22;3055;50.886;14.814;2023-07-02T05:59:20;19.00;72.30
6054;DHT22;3055;50.886;14.814;2023-07-02T06:01:47;19.00;85.10
6054;DHT22;3055;50.886;14.814;2023-07-02T06:04:14;19.00;70.80
6054;DHT22;3055;50.886;14.814;2023-07-02T06:06:41;19.00;41.60
6054;DHT22;3055;50.886;14.814;2023-07-02T06:09:08;18.90;33.30
6054;DHT22;3055;50.886;14.814;2023-07-02T06:11:35;18.70;45.80
6054;DHT22;3055;50.886;14.814;2023-07-02T06:14:05;18.00;1.00
6054;DHT22;3055;50.886;14.814;2023-07-02T06:16:32;17.40;44.40
6054;DHT22;3055;50.886;14.814;2023-07-02T06:18:59;17.00;99.90
6054;DHT22;3055;50.886;14.814;2023-07-02T06:21:26;16.80;99.90
6054;DHT22;3055;50.886;14.814;2023-07-02T06:23:56;16.80;99.90
6054;DHT22;3055;50.886;14.814;2023-07-02T06:26:24;16.70;99.90
6054;DHT22;3055;50.886;14.814;2023-07-02T06:28:51;16.70;99.90
6054;DHT22;3055;50.886;14.814;2023-07-02T06:31:19;16.80;99.90
6054;DHT22;3055;50.886;14.814;2023-07-02T06:33:46;16.90;99.90
6054;DHT22;3055;50.886;14.814;2023-07-02T06:36:13;17.00;99.90
6054;DHT22;3055;50.886;14.814;2023-07-02T06:38:40;17.20;99.90
6054;DHT22;3055;50.886;14.814;2023-07-02T06:41:07;17.30;99.90
6054;DHT22;3055;50.886;14.814;2023-07-02T06:43:35;17.40;99.90
6054;DHT22;3055;50.886;14.814;2023-07-02T06:46:02;17.60;99.90
6054;DHT22;3055;50.886;14.814;2023-07-02T06:48:30;17.70;99.90
6054;DHT22;3055;50.886;14.814;2023-07-02T06:50:58;17.80;99.90
6054;DHT22;3055;50.886;14.814;2023-07-02T06:53:25;17.90;99.90
6054;DHT22;3055;50.886;14.814;2023-07-02T06:55:52;18.00;99.90
6054;DHT22;3055;50.886;14.814;2023-07-02T06:58:19;18.10;99.90
6054;DHT22;3055;50.886;14.814;2023-07-02T07:00:46;18.20;76.00
6054;DHT22;3055;50.886;14.814;2023-07-02T07:03:14;18.30;4.00
6054;DHT22;3055;50.886;14.814;2023-07-02T07:05:42;18.30;17.00
6054;DHT22;3055;50.886;14.814;2023-07-02T07:08:09;18.30;4.90
6054;DHT22;3055;50.886;14.814;2023-07-02T07:10:37;18.40;1.00
6054;DHT22;3055;50.886;14.814;2023-07-02T07:13:04;18.50;6.90
6054;DHT22;3055;50.886;14.814;2023-07-02T07:15:33;18.80;40.50
6054;DHT22;3055;50.886;14.814;2023-07-02T07:18:01;18.90;1.00
6054;DHT22;3055;50.886;14.814;2023-07-02T07:20:28;19.10;1.00
6054;DHT22;3055;50.886;14.814;2023-07-02T07:22:57;19.00;1.00
6054;DHT22;3055;50.886;14.814;2023-07-02T07:25:24;19.30;1.00
6054;DHT22;3055;50.886;14.814;2023-07-02T07:27:51;19.40;1.00
6054;DHT22;3055;50.886;14.814;2023-07-02T07:30:19;19.40;99.90
6054;DHT22;3055;50.886;14.814;2023-07-02T07:32:49;19.50;99.90
6054;DHT22;3055;50.886;14.814;2023-07-02T07:35:16;19.80;99.90
6054;DHT22;3055;50.886;14.814;2023-07-02T07:37:43;20.00;99.90
6054;DHT22;3055;50.886;14.814;2023-07-02T07:40:13;20.10;99.90
6054;DHT22;3055;50.886;14.814;2023-07-02T07:42:40;20.10;99.90
6054;DHT22;3055;50.886;14.814;2023-07-02T07:45:09;19.90;1.00
6054;DHT22;3055;50.886;14.814;2023-07-02T07:47:36;19.90;1.00
6054;DHT22;3055;50.886;14.814;2023-07-02T07:50:04;20.10;48.50
6054;DHT22;3055;50.886;14.814;2023-07-02T07:52:36;20.30;1.00
6054;DHT22;3055;50.886;14.814;2023-07-02T07:55:04;20.60;1.00
6054;DHT22;3055;50.886;14.814;2023-07-02T07:57:33;20.80;99.90
6054;DHT22;3055;50.886;14.814;2023-07-02T08:00:00;21.10;1.00
6054;DHT22;3055;50.886;14.814;2023-07-02T08:02:29;21.50;1.00
6054;DHT22;3055;50.886;14.814;2023-07-02T08:04:56;21.80;99.90
6054;DHT22;3055;50.886;14.814;2023-07-02T08:07:24;22.10;99.60
6054;DHT22;3055;50.886;14.814;2023-07-02T08:09:51;22.30;1.00
6054;DHT22;3055;50.886;14.814;2023-07-02T08:12:18;22.60;99.90
6054;DHT22;3055;50.886;14.814;2023-07-02T08:14:46;22.50;1.00
6054;DHT22;3055;50.886;14.814;2023-07-02T08:17:14;22.50;99.90
6054;DHT22;3055;50.886;14.814;2023-07-02T08:19:41;22.70;1.00
6054;DHT22;3055;50.886;14.814;2023-07-02T08:22:08;22.70;53.90
6054;DHT22;3055;50.886;14.814;2023-07-02T08:24:35;22.80;1.00
6054;DHT22;3055;50.886;14.814;2023-07-02T08:27:02;22.80;1.00
6054;DHT22;3055;50.886;14.814;2023-07-02T08:29:30;23.00;1.00
6054;DHT22;3055;50.886;14.814;2023-07-02T08:31:58;23.30;1.00
6054;DHT22;3055;50.886;14.814;2023-07-02T08:34:27;23.40;1.00
6054;DHT22;3055;50.886;14.814;2023-07-02T08:36:54;23.30;99.90
6054;DHT22;3055;50.886;14.814;2023-07-02T08:39:21;23.30;99.90
6054;DHT22;3055;50.886;14.814;2023-07-02T08:41:48;22.90;99.90
6054;DHT22;3055;50.886;14.814;2023-07-02T08:44:19;22.70;99.90
6054;DHT22;3055;50.886;14.814;2023-07-02T08:46:47;22.80;99.90
6054;DHT22;3055;50.886;14.814;2023-07-02T08:49:17;22.70;99.90
6054;DHT22;3055;50.886;14.814;2023-07-02T08:51:45;22.60;99.90
6054;DHT22;3055;50.886;14.814;2023-07-02T08:54:13;22.60;99.90
6054;DHT22;3055;50.886;14.814;2023-07-02T08:56:40;22.30;99.90
6054;DHT22;3055;50.886;14.814;2023-07-02T08:59:08;22.20;99.90
6054;DHT22;3055;50.886;14.814;2023-07-02T09:01:45;22.30;99.90
6054;DHT22;3055;50.886;14.814;2023-07-02T09:04:18;22.40;99.90
6054;DHT22;3055;50.886;14.814;2023-07-02T09:06:45;22.40;99.90
6054;DHT22;3055;50.886;14.814;2023-07-02T09:09:13;22.50;99.90
6054;DHT22;3055;50.886;14.814;2023-07-02T09:11:49;22.70;99.90
6054;DHT22;3055;50.886;14.814;2023-07-02T09:14:27;22.90;99.90
6054;DHT22;3055;50.886;14.814;2023-07-02T09:17:05;22.80;99.90
6054;DHT22;3055;50.886;14.814;2023-07-02T09:19:34;22.70;99.90
6054;DHT22;3055;50.886;14.814;2023-07-02T09:22:02;22.70;99.90
6054;DHT22;3055;50.886;14.814;2023-07-02T09:24:31;22.70;99.90
6054;DHT22;3055;50.886;14.814;2023-07-02T09:26:59;22.70;99.90
6054;DHT22;3055;50.886;14.814;2023-07-02T09:29:28;22.80;99.90
6054;DHT22;3055;50.886;14.814;2023-07-02T09:31:57;22.90;99.90
6054;DHT22;3055;50.886;14.814;2023-07-02T09:34:28;23.10;99.90
6054;DHT22;3055;50.886;14.814;2023-07-02T09:36:57;23.20;99.90
6054;DHT22;3055;50.886;14.814;2023-07-02T09:39:27;23.30;99.90
6054;DHT22;3055;50.886;14.814;2023-07-02T09:41:56;23.50;99.90
6054;DHT22;3055;50.886;14.814;2023-07-02T09:44:26;23.70;99.90
6054;DHT22;3055;50.886;14.814;2023-07-02T09:46:58;23.70;3.40
6054;DHT22;3055;50.886;14.814;2023-07-02T09:49:27;23.40;1.00
6054;DHT22;3055;50.886;14.814;2023-07-02T09:52:00;23.20;1.00
6054;DHT22;3055;50.886;14.814;2023-07-02T09:54:27;23.20;1.00
6054;DHT22;3055;50.886;14.814;2023-07-02T09:56:56;23.20;1.00
6054;DHT22;3055;50.886;14.814;2023-07-02T09:59:23;23.00;1.00
6054;DHT22;3055;50.886;14.814;2023-07-02T10:01:50;23.10;1.00
6054;DHT22;3055;50.886;14.814;2023-07-02T10:04:19;23.10;1.00
6054;DHT22;3055;50.886;14.814;2023-07-02T10:06:50;23.00;1.00
6054;DHT22;3055;50.886;14.814;2023-07-02T10:09:19;23.00;1.00
6054;DHT22;3055;50.886;14.814;2023-07-02T10:11:47;23.30;1.00
6054;DHT22;3055;50.886;14.814;2023-07-02T10:14:14;23.50;1.00
6054;DHT22;3055;50.886;14.814;2023-07-02T10:16:51;23.60;1.00
6054;DHT22;3055;50.886;14.814;2023-07-02T10:19:19;23.80;1.00
6054;DHT22;3055;50.886;14.814;2023-07-02T10:21:47;24.20;1.00
6054;DHT22;3055;50.886;14.814;2023-07-02T10:24:29;24.60;1.00
6054;DHT22;3055;50.886;14.814;2023-07-02T10:26:57;24.90;1.00
6054;DHT22;3055;50.886;14.814;2023-07-02T10:29:25;25.40;1.00
6054;DHT22;3055;50.886;14.814;2023-07-02T10:31:54;25.40;1.00
6054;DHT22;3055;50.886;14.814;2023-07-02T10:34:30;25.50;1.00
6054;DHT22;3055;50.886;14.814;2023-07-02T10:36:59;25.30;1.00
6054;DHT22;3055;50.886;14.814;2023-07-02T10:39:28;24.90;1.00
6054;DHT22;3055;50.886;14.814;2023-07-02T10:42:04;24.60;1.00
6054;DHT22;3055;50.886;14.814;2023-07-02T10:44:31;24.30;1.00
6054;DHT22;3055;50.886;14.814;2023-07-02T10:47:00;24.10;1.00
6054;DHT22;3055;50.886;14.814;2023-07-02T10:49:31;24.00;1.00
6054;DHT22;3055;50.886;14.814;2023-07-02T10:51:59;23.90;1.00
6054;DHT22;3055;50.886;14.814;2023-07-02T10:54:37;23.80;1.00
6054;DHT22;3055;50.886;14.814;2023-07-02T10:57:05;24.10;1.00
6054;DHT22;3055;50.886;14.814;2023-07-02T11:26:09;25.20;1.00
6054;DHT22;3055;50.886;14.814;2023-07-02T11:28:48;25.60;1.00
6054;DHT22;3055;50.886;14.814;2023-07-02T11:31:24;25.70;1.00
6054;DHT22;3055;50.886;14.814;2023-07-02T11:33:52;25.60;1.00
6054;DHT22;3055;50.886;14.814;2023-07-02T11:36:20;25.70;1.00
6054;DHT22;3055;50.886;14.814;2023-07-02T11:38:49;25.70;1.00
6054;DHT22;3055;50.886;14.814;2023-07-02T11:41:18;25.40;1.00
6054;DHT22;3055;50.886;14.814;2023-07-02T11:43:46;25.30;1.00
6054;DHT22;3055;50.886;14.814;2023-07-02T11:46:14;25.30;1.00
6054;DHT22;3055;50.886;14.814;2023-07-02T11:48:41;25.20;1.00
6054;DHT22;3055;50.886;14.814;2023-07-02T11:51:08;25.20;1.00
6054;DHT22;3055;50.886;14.814;2023-07-02T11:53:36;25.50;1.00
6054;DHT22;3055;50.886;14.814;2023-07-02T11:56:03;25.80;1.00
6054;DHT22;3055;50.886;14.814;2023-07-02T11:58:31;25.80;1.00
6054;DHT22;3055;50.886;14.814;2023-07-02T12:00:58;25.90;1.00
6054;DHT22;3055;50.886;14.814;2023-07-02T12:03:25;26.30;1.00
6054;DHT22;3055;50.886;14.814;2023-07-02T12:05:56;26.40;1.00
6054;DHT22;3055;50.886;14.814;2023-07-02T12:08:23;26.40;1.00
6054;DHT22;3055;50.886;14.814;2023-07-02T12:10:50;26.50;1.00
6054;DHT22;3055;50.886;14.814;2023-07-02T12:13:17;26.50;1.00
6054;DHT22;3055;50.886;14.814;2023-07-02T12:15:47;26.50;1.00
6054;DHT22;3055;50.886;14.814;2023-07-02T12:18:15;26.30;1.00
6054;DHT22;3055;50.886;14.814;2023-07-02T12:20:42;26.20;1.00
6054;DHT22;3055;50.886;14.814;2023-07-02T12:23:09;26.30;1.00
6054;DHT22;3055;50.886;14.814;2023-07-02T12:25:37;26.50;1.00
6054;DHT22;3055;50.886;14.814;2023-07-02T12:28:04;26.70;1.00
6054;DHT22;3055;50.886;14.814;2023-07-02T12:30:32;26.90;1.00
6054;DHT22;3055;50.886;14.814;2023-07-02T12:33:00;27.10;1.00
6054;DHT22;3055;50.886;14.814;2023-07-02T12:35:27;27.20;1.00
6054;DHT22;3055;50.886;14.814;2023-07-02T12:37:54;27.30;1.00
6054;DHT22;3055;50.886;14.814;2023-07-02T12:40:21;26.90;1.00
6054;DHT22;3055;50.886;14.814;2023-07-02T12:42:48;26.50;1.00
6054;DHT22;3055;50.886;14.814;2023-07-02T12:45:16;26.50;1.00
6054;DHT22;3055;50.886;14.814;2023-07-02T12:47:43;26.90;1.00
6054;DHT22;3055;50.886;14.814;2023-07-02T12:50:12;27.20;1.00
6054;DHT22;3055;50.886;14.814;2023-07-02T12:52:39;27.30;1.00
6054;DHT22;3055;50.886;14.814;2023-07-02T12:55:07;27.60;1.00
6054;DHT22;3055;50.886;14.814;2023-07-02T12:57:34;28.00;1.00
6054;DHT22;3055;50.886;14.814;2023-07-02T13:00:02;27.50;1.00
6054;DHT22;3055;50.886;14.814;2023-07-02T13:02:31;27.10;1.00
6054;DHT22;3055;50.886;14.814;2023-07-02T13:04:58;27.10;1.00
6054;DHT22;3055;50.886;14.814;2023-07-02T13:07:27;26.80;1.00
6054;DHT22;3055;50.886;14.814;2023-07-02T13:09:55;26.80;1.00
6054;DHT22;3055;50.886;14.814;2023-07-02T13:12:23;27.10;1.00
6054;DHT22;3055;50.886;14.814;2023-07-02T13:14:50;27.30;1.00
6054;DHT22;3055;50.886;14.814;2023-07-02T13:17:17;27.50;1.00
6054;DHT22;3055;50.886;14.814;2023-07-02T13:19:44;27.40;1.00
6054;DHT22;3055;50.886;14.814;2023-07-02T13:22:11;27.50;1.00
6054;DHT22;3055;50.886;14.814;2023-07-02T13:24:39;27.50;1.00
6054;DHT22;3055;50.886;14.814;2023-07-02T13:27:10;27.60;1.00
6054;DHT22;3055;50.886;14.814;2023-07-02T13:29:37;27.50;1.00
6054;DHT22;3055;50.886;14.814;2023-07-02T13:32:06;27.70;1.00
6054;DHT22;3055;50.886;14.814;2023-07-02T13:34:33;27.90;1.00
6054;DHT22;3055;50.886;14.814;2023-07-02T13:37:00;28.00;1.00
6054;DHT22;3055;50.886;14.814;2023-07-02T13:39:28;28.10;1.00
6054;DHT22;3055;50.886;14.814;2023-07-02T13:41:57;28.10;1.00
6054;DHT22;3055;50.886;14.814;2023-07-02T13:44:24;28.30;1.00
6054;DHT22;3055;50.886;14.814;2023-07-02T13:46:51;28.10;1.00
6054;DHT22;3055;50.886;14.814;2023-07-02T13:49:18;27.90;1.00
6054;DHT22;3055;50.886;14.814;2023-07-02T13:51:47;27.30;1.00
6054;DHT22;3055;50.886;14.814;2023-07-02T13:54:15;26.90;1.00
6054;DHT22;3055;50.886;14.814;2023-07-02T13:56:44;26.50;1.00
6054;DHT22;3055;50.886;14.814;2023-07-02T13:59:12;26.30;1.00
6054;DHT22;3055;50.886;14.814;2023-07-02T14:01:39;26.00;1.00
6054;DHT22;3055;50.886;14.814;2023-07-02T14:04:06;25.80;1.00
6054;DHT22;3055;50.886;14.814;2023-07-02T14:06:33;25.50;1.00
6054;DHT22;3055;50.886;14.814;2023-07-02T14:09:00;25.10;1.00
6054;DHT22;3055;50.886;14.814;2023-07-02T14:11:29;24.90;1.00
6054;DHT22;3055;50.886;14.814;2023-07-02T14:13:56;24.90;1.00
6054;DHT22;3055;50.886;14.814;2023-07-02T14:16:24;25.20;1.00
6054;DHT22;3055;50.886;14.814;2023-07-02T14:18:52;25.90;1.00
6054;DHT22;3055;50.886;14.814;2023-07-02T14:21:19;26.40;1.00
6054;DHT22;3055;50.886;14.814;2023-07-02T14:23:46;26.40;1.00
6054;DHT22;3055;50.886;14.814;2023-07-02T14:26:13;26.40;1.00
6054;DHT22;3055;50.886;14.814;2023-07-02T14:28:40;26.50;1.00
6054;DHT22;3055;50.886;14.814;2023-07-02T14:31:07;27.30;1.00
6054;DHT22;3055;50.886;14.814;2023-07-02T14:33:37;28.20;1.00
6054;DHT22;3055;50.886;14.814;2023-07-02T14:36:05;28.60;1.00
6054;DHT22;3055;50.886;14.814;2023-07-02T14:38:33;29.20;1.00
6054;DHT22;3055;50.886;14.814;2023-07-02T14:41:00;28.70;1.00
6054;DHT22;3055;50.886;14.814;2023-07-02T14:43:29;27.90;1.00
6054;DHT22;3055;50.886;14.814;2023-07-02T14:46:00;27.00;1.00
6054;DHT22;3055;50.886;14.814;2023-07-02T14:48:28;26.50;1.00
6054;DHT22;3055;50.886;14.814;2023-07-02T14:50:57;25.90;1.00
6054;DHT22;3055;50.886;14.814;2023-07-02T14:53:25;25.80;1.00
6054;DHT22;3055;50.886;14.814;2023-07-02T14:55:55;25.70;1.00
6054;DHT22;3055;50.886;14.814;2023-07-02T14:58:22;25.50;1.00
6054;DHT22;3055;50.886;14.814;2023-07-02T15:00:51;25.50;1.00
6054;DHT22;3055;50.886;14.814;2023-07-02T15:03:19;25.20;1.00
6054;DHT22;3055;50.886;14.814;2023-07-02T15:05:49;25.00;1.00
6054;DHT22;3055;50.886;14.814;2023-07-02T15:08:18;24.60;1.00
6054;DHT22;3055;50.886;14.814;2023-07-02T15:10:48;24.40;1.00
6054;DHT22;3055;50.886;14.814;2023-07-02T15:13:16;24.30;1.00
6054;DHT22;3055;50.886;14.814;2023-07-02T15:15:44;24.30;1.00
6054;DHT22;3055;50.886;14.814;2023-07-02T15:18:11;24.40;1.00
6054;DHT22;3055;50.886;14.814;2023-07-02T15:20:39;24.50;1.00
6054;DHT22;3055;50.886;14.814;2023-07-02T15:23:07;24.70;1.00
6054;DHT22;3055;50.886;14.814;2023-07-02T15:25:35;25.10;1.00
6054;DHT22;3055;50.886;14.814;2023-07-02T15:28:02;26.70;1.00
6054;DHT22;3055;50.886;14.814;2023-07-02T15:30:29;28.60;1.00
6054;DHT22;3055;50.886;14.814;2023-07-02T15:32:56;29.50;1.00
6054;DHT22;3055;50.886;14.814;2023-07-02T15:35:23;29.60;1.00
6054;DHT22;3055;50.886;14.814;2023-07-02T15:37:51;29.70;1.00
6054;DHT22;3055;50.886;14.814;2023-07-02T15:40:18;29.60;1.00
6054;DHT22;3055;50.886;14.814;2023-07-02T15:42:46;29.80;1.00
6054;DHT22;3055;50.886;14.814;2023-07-02T15:45:13;30.40;1.00
6054;DHT22;3055;50.886;14.814;2023-07-02T15:47:40;31.00;1.00
6054;DHT22;3055;50.886;14.814;2023-07-02T15:50:08;31.50;1.00
6054;DHT22;3055;50.886;14.814;2023-07-02T15:52:35;31.90;1.00
6054;DHT22;3055;50.886;14.814;2023-07-02T15:55:02;31.10;1.00
6054;DHT22;3055;50.886;14.814;2023-07-02T15:57:29;29.80;1.00
6054;DHT22;3055;50.886;14.814;2023-07-02T15:59:58;28.80;1.00
6054;DHT22;3055;50.886;14.814;2023-07-02T16:02:25;27.80;1.00
6054;DHT22;3055;50.886;14.814;2023-07-02T16:04:52;27.00;1.00
6054;DHT22;3055;50.886;14.814;2023-07-02T16:07:19;26.50;1.00
6054;DHT22;3055;50.886;14.814;2023-07-02T16:09:46;26.40;1.00
6054;DHT22;3055;50.886;14.814;2023-07-02T16:12:13;27.30;1.00
6054;DHT22;3055;50.886;14.814;2023-07-02T16:14:40;27.80;1.00
6054;DHT22;3055;50.886;14.814;2023-07-02T16:17:09;27.50;1.00
6054;DHT22;3055;50.886;14.814;2023-07-02T16:19:36;27.30;1.00
6054;DHT22;3055;50.886;14.814;2023-07-02T16:22:03;27.20;1.00
6054;DHT22;3055;50.886;14.814;2023-07-02T16:24:33;27.00;1.00
6054;DHT22;3055;50.886;14.814;2023-07-02T16:27:01;26.50;1.00